Jacksonville, FL

5:53 PM EDT on July 01, 2015 (GMT -0400)
Normandy Heights 32205 | | Change Station
CLOSE
Current Station
Personal Weather Station
Location: Jacksonville, FL
Elevation: 20 ft
Nearby Weather Stations

Elev 20 ft 30.30 °N, 81.76 °W | Updated 5 seconds ago

Partly Cloudy
Partly Cloudy
90.7 °F
Feels Like 94 °F
N
0.2
Wind Variable Wind from SE
Gusts 2.5 mph

Today
High -- | Low -- °F
--% Chance of Precip.
Yesterday
High -- | Low -- °F
Precip. -- in
6:28 AM 8:33 PM
Full, 100% visible
Pressure 30.04 in
Visibility 8.0 miles
Clouds Few 5000 ft
Scattered Clouds 6500 ft
Overcast 25000 ft
Heat Index 94 °F
Dew Point 67 °F
Humidity 45%
Rainfall 0.00 in
Snow Depth Not available.
UV 2 out of 12
Pollen 2.90 out of 12
Air Quality Not available.
Flu Activity Not available.
METAR KNIP 012053Z 23014KT 8SM FEW050 SCT065 OVC250 36/18 A3005 RMK AO2 SLP171 CB DSNT S-SW T2 SET T03610183 58016

More Conditions Fewer Conditions

Pressure 30.04 in
Visibility 8.0 miles
Clouds Few 5000 ft
Scattered Clouds 6500 ft
Overcast 25000 ft
Heat Index 94 °F
Dew Point 67 °F
Humidity 45%
Rainfall 0.00 in
Snow Depth Not available.
UV 2 out of 12
Pollen 2.90 out of 12
Air Quality Not available.
Flu Activity Not available.
METAR KNIP 012053Z 23014KT 8SM FEW050 SCT065 OVC250 36/18 A3005 RMK AO2 SLP171 CB DSNT S-SW T2 SET T03610183 58016

More Conditions Fewer Conditions

10-Day Weather Forecast

×

Almanac

Astronomy

Jul. 01, 2015 Rise Set
Actual Time
Civil Twilight
Nautical Twilight
Astronomical Twilight
Moon
Length of Visible Light
Length of Day
Tomorrow will be .
, % of the Moon is Illuminated

Today's Extremes

State Highs State Lows

Community

WunderPhotos

Upload Photos

1,834,295 photos uploaded!

WunderBlogs® & News

Nearby

Air Quality

  Air Quality AQ Index Pollutant
Not available.

Snow Depth

Station Depth Elevation

Earthquake Activity

City Distance Mag. Time & Date
Minimum magnitude displayed is 2.5.

Coastal Water Temperatures

Place Temperature

Stations

Nearby Weather Stations

Station Location Temp. Windchill Dew Point Humidity Wind Precip. Elev Updated Type